createdAt,value
2022-08-23T00:03:00.045Z,18.60
2022-08-23T00:07:05.379Z,18.50
2022-08-23T00:11:23.391Z,18.50
2022-08-23T00:15:25.344Z,18.40
2022-08-23T00:19:29.421Z,18.30
2022-08-23T00:23:31.270Z,18.30
2022-08-23T00:27:33.442Z,18.20
2022-08-23T00:31:35.082Z,18.10
2022-08-23T00:35:36.764Z,18.20
2022-08-23T00:39:39.871Z,18.20
2022-08-23T00:44:00.614Z,18.10
2022-08-23T00:48:03.514Z,18.10
2022-08-23T00:52:16.729Z,17.80
2022-08-23T00:56:19.359Z,18.00
2022-08-23T01:00:21.585Z,17.90
2022-08-23T01:04:24.135Z,17.80
2022-08-23T01:08:27.620Z,17.90
2022-08-23T01:12:32.769Z,17.80
2022-08-23T01:16:38.364Z,17.80
2022-08-23T01:20:51.150Z,17.60
2022-08-23T01:25:07.428Z,17.70
2022-08-23T01:29:10.310Z,17.60
2022-08-23T01:33:11.931Z,17.50
2022-08-23T01:37:13.912Z,17.50
2022-08-23T01:41:15.641Z,17.40
2022-08-23T01:45:17.404Z,17.40
2022-08-23T01:49:19.344Z,17.50
2022-08-23T01:53:21.016Z,17.40
2022-08-23T01:57:22.872Z,17.50
2022-08-23T02:01:24.599Z,17.60
2022-08-23T02:05:29.514Z,17.50
2022-08-23T02:09:31.935Z,17.50
2022-08-23T02:13:34.138Z,17.50
2022-08-23T02:17:35.841Z,17.40
2022-08-23T02:21:37.930Z,17.30
2022-08-23T02:25:40.531Z,17.20
2022-08-23T02:29:44.098Z,17.10
2022-08-23T02:33:46.064Z,17.30
2022-08-23T02:37:47.725Z,17.20
2022-08-23T02:41:49.832Z,17.20
2022-08-23T02:45:51.687Z,17.20
2022-08-23T02:49:54.087Z,17.10
2022-08-23T02:53:55.944Z,17.10
2022-08-23T02:57:59.073Z,17.00
2022-08-23T03:02:00.954Z,17.10
2022-08-23T03:06:24.661Z,17.00
2022-08-23T03:10:24.229Z,17.10
2022-08-23T03:14:27.545Z,17.20
2022-08-23T03:18:29.144Z,17.10
2022-08-23T03:22:30.713Z,16.80
2022-08-23T03:26:32.344Z,16.70
2022-08-23T03:30:34.325Z,16.80
2022-08-23T03:34:35.969Z,16.70
2022-08-23T03:38:39.367Z,16.60
2022-08-23T03:42:41.019Z,16.70
2022-08-23T03:46:42.797Z,16.80
2022-08-23T03:50:44.887Z,16.90
2022-08-23T03:54:46.538Z,16.90
2022-08-23T03:58:48.766Z,16.90
2022-08-23T04:02:50.769Z,16.70
2022-08-23T04:06:52.349Z,16.50
2022-08-23T04:10:54.074Z,16.20
2022-08-23T04:14:57.709Z,16.00
2022-08-23T04:18:59.813Z,16.00
2022-08-23T04:23:02.834Z,16.10
2022-08-23T04:27:04.559Z,16.20
2022-08-23T04:31:06.611Z,16.20
2022-08-23T04:35:08.514Z,16.20
2022-08-23T04:39:10.316Z,16.30
2022-08-23T04:43:12.768Z,16.20
2022-08-23T04:47:14.871Z,16.10
2022-08-23T04:51:16.843Z,16.30
2022-08-23T04:55:18.583Z,16.40
2022-08-23T04:59:20.282Z,16.50
2022-08-23T05:03:21.985Z,16.40
2022-08-23T05:07:41.779Z,16.60
2022-08-23T05:11:44.708Z,16.70
2022-08-23T05:15:46.398Z,16.70
2022-08-23T05:19:48.274Z,16.90
2022-08-23T05:23:50.882Z,17.00
2022-08-23T05:27:56.613Z,17.00
2022-08-23T05:31:58.776Z,17.00
2022-08-23T05:36:02.022Z,17.00
2022-08-23T05:40:04.627Z,17.10
2022-08-23T05:44:10.481Z,17.40
2022-08-23T05:48:15.688Z,17.50
2022-08-23T05:52:20.270Z,17.70
2022-08-23T05:56:32.885Z,18.10
2022-08-23T06:00:38.030Z,18.00
2022-08-23T06:04:42.548Z,18.00
2022-08-23T06:08:46.413Z,18.10
2022-08-23T06:12:48.459Z,18.20
2022-08-23T06:16:54.928Z,18.30
2022-08-23T06:21:05.258Z,18.30
2022-08-23T06:25:09.570Z,18.30
2022-08-23T06:29:13.049Z,18.30
2022-08-23T06:33:14.822Z,18.50
2022-08-23T06:37:16.490Z,18.60
2022-08-23T06:41:18.172Z,18.40
2022-08-23T06:45:19.817Z,18.40
2022-08-23T06:49:32.446Z,18.50
2022-08-23T06:53:34.258Z,19.40
2022-08-23T06:57:36.085Z,19.70
2022-08-23T07:01:46.608Z,19.90
2022-08-23T07:05:48.761Z,20.10
2022-08-23T07:09:50.513Z,20.50
2022-08-23T07:13:52.920Z,21.00
2022-08-23T07:17:54.613Z,21.20
2022-08-23T07:21:56.993Z,21.40
2022-08-23T07:26:07.715Z,21.80
2022-08-23T07:30:09.697Z,22.30
2022-08-23T07:34:15.416Z,22.20
2022-08-23T07:38:17.686Z,22.70
2022-08-23T07:42:23.034Z,22.80
2022-08-23T07:46:25.937Z,23.30
2022-08-23T07:50:30.365Z,23.40
2022-08-23T07:54:33.441Z,23.50
2022-08-23T07:58:35.113Z,23.70
2022-08-23T08:02:36.934Z,23.90
2022-08-23T08:06:44.056Z,23.80
2022-08-23T08:10:46.377Z,23.40
2022-08-23T08:14:48.376Z,23.90
2022-08-23T08:18:50.359Z,23.90
2022-08-23T08:22:52.339Z,24.30
2022-08-23T08:27:00.571Z,24.50
2022-08-23T08:31:02.776Z,24.20
2022-08-23T08:35:05.210Z,24.70
2022-08-23T08:39:11.868Z,24.60
2022-08-23T08:43:17.476Z,24.40
2022-08-23T08:47:30.065Z,24.80
2022-08-23T08:51:43.964Z,25.00
2022-08-23T08:55:51.643Z,25.40
2022-08-23T09:00:01.816Z,25.30
2022-08-23T09:04:04.484Z,25.20
2022-08-23T09:08:35.241Z,24.90
2022-08-23T09:12:56.568Z,25.10
2022-08-23T09:17:02.394Z,25.20
2022-08-23T09:21:06.717Z,25.40
2022-08-23T09:25:11.249Z,25.70
2022-08-23T09:29:22.071Z,25.70
2022-08-23T09:33:26.104Z,25.90
2022-08-23T09:37:28.857Z,26.10
2022-08-23T09:41:41.566Z,26.50
2022-08-23T09:45:49.259Z,26.40
2022-08-23T09:49:52.106Z,26.80
2022-08-23T09:54:04.490Z,26.80
2022-08-23T09:58:26.365Z,26.80
2022-08-23T10:02:35.183Z,27.00
2022-08-23T10:06:37.443Z,27.00
2022-08-23T10:10:48.054Z,27.10
2022-08-23T10:14:53.644Z,27.20
2022-08-23T10:18:58.083Z,27.00
2022-08-23T10:23:08.956Z,27.10
2022-08-23T10:27:57.380Z,27.00
2022-08-23T10:32:21.464Z,26.80
2022-08-23T10:36:33.714Z,27.10
2022-08-23T10:40:54.793Z,26.70
2022-08-23T10:45:15.875Z,26.70
2022-08-23T10:49:17.668Z,26.70
2022-08-23T10:53:20.062Z,26.60
2022-08-23T10:57:24.018Z,27.10
2022-08-23T11:01:34.453Z,27.40
2022-08-23T11:05:37.245Z,27.30
2022-08-23T11:09:46.944Z,27.70
2022-08-23T11:13:53.837Z,27.40
2022-08-23T11:18:00.809Z,27.10
2022-08-23T11:22:15.117Z,27.30
2022-08-23T11:26:22.842Z,27.00
2022-08-23T11:30:36.704Z,27.10
2022-08-23T11:35:03.972Z,27.20
2022-08-23T11:39:08.663Z,27.10
2022-08-23T11:43:20.381Z,27.20
2022-08-23T11:47:38.620Z,27.10
2022-08-23T11:51:48.574Z,27.60
2022-08-23T11:55:57.807Z,27.60
2022-08-23T12:00:26.893Z,27.70
2022-08-23T12:04:41.107Z,27.60
2022-08-23T12:08:57.007Z,27.60
2022-08-23T12:13:22.512Z,28.00
2022-08-23T12:17:26.206Z,28.20
2022-08-23T12:21:33.752Z,28.00
2022-08-23T12:25:38.493Z,27.60
2022-08-23T12:29:55.039Z,27.50
2022-08-23T12:34:10.578Z,27.60
2022-08-23T12:38:15.529Z,27.60
2022-08-23T12:42:25.573Z,27.60
2022-08-23T12:46:44.492Z,28.00
2022-08-23T12:50:53.065Z,28.10
2022-08-23T12:54:57.855Z,28.10
2022-08-23T12:59:05.249Z,28.10
2022-08-23T13:03:14.455Z,28.40
2022-08-23T13:07:19.730Z,28.30
2022-08-23T13:11:22.372Z,28.30
2022-08-23T13:15:43.375Z,28.10
2022-08-23T13:19:46.899Z,28.20
2022-08-23T13:23:49.323Z,28.00
2022-08-23T13:27:52.686Z,27.90
2022-08-23T13:32:04.092Z,28.00
2022-08-23T13:36:16.929Z,28.10
2022-08-23T13:40:23.968Z,28.00
2022-08-23T13:44:26.434Z,27.80
2022-08-23T13:48:32.768Z,27.50
2022-08-23T13:53:11.570Z,27.70
2022-08-23T13:57:04.623Z,27.60
2022-08-23T14:01:11.741Z,27.60
2022-08-23T14:05:13.463Z,27.70
2022-08-23T14:09:15.555Z,27.80
2022-08-23T14:13:17.816Z,28.10
2022-08-23T14:17:20.613Z,28.40
2022-08-23T14:21:22.509Z,28.50
2022-08-23T14:25:24.200Z,28.40
2022-08-23T14:29:29.951Z,28.40
2022-08-23T14:33:31.644Z,28.20
2022-08-23T14:41:58.018Z,28.10
2022-08-23T14:46:00.883Z,28.10
2022-08-23T14:50:04.341Z,28.00
2022-08-23T14:54:06.954Z,28.00
2022-08-23T14:58:08.935Z,28.00
2022-08-23T15:02:14.784Z,27.80
2022-08-23T15:06:17.267Z,27.90
2022-08-23T15:14:40.724Z,27.80
2022-08-23T15:18:45.024Z,27.70
2022-08-23T15:22:55.362Z,27.70
2022-08-23T15:26:59.747Z,27.60
2022-08-23T15:31:01.459Z,27.60
2022-08-23T15:35:03.322Z,27.50
2022-08-23T15:39:05.168Z,27.60
2022-08-23T15:43:06.969Z,27.50
2022-08-23T15:47:16.040Z,27.50
2022-08-23T15:51:18.034Z,27.60
2022-08-23T15:55:20.042Z,27.50
2022-08-23T15:59:21.897Z,27.50
2022-08-23T16:03:23.605Z,27.50
2022-08-23T16:07:25.606Z,27.50
2022-08-23T16:11:27.197Z,27.50
2022-08-23T16:15:28.764Z,27.50
2022-08-23T16:19:33.817Z,27.40
2022-08-23T16:23:36.215Z,27.50
2022-08-23T16:27:38.134Z,27.30
2022-08-23T16:31:43.488Z,27.30
2022-08-23T16:35:51.286Z,27.30
2022-08-23T16:39:53.554Z,27.30
2022-08-23T16:43:55.716Z,27.20
2022-08-23T16:47:58.517Z,27.20
2022-08-23T16:52:00.552Z,27.00
2022-08-23T16:56:02.303Z,27.00
2022-08-23T17:00:06.777Z,27.00
2022-08-23T17:04:08.681Z,26.90
2022-08-23T17:08:10.243Z,26.90
2022-08-23T17:12:11.924Z,26.90
2022-08-23T17:16:13.728Z,26.80
2022-08-23T17:20:15.912Z,26.90
2022-08-23T17:24:17.969Z,26.90
2022-08-23T17:28:19.679Z,26.80
2022-08-23T17:32:21.516Z,26.70
2022-08-23T17:36:28.799Z,26.80
2022-08-23T17:40:32.413Z,26.70
2022-08-23T17:44:36.213Z,26.60
2022-08-23T17:48:37.804Z,26.60
2022-08-23T17:52:39.713Z,26.50
2022-08-23T17:56:41.599Z,26.50
2022-08-23T18:00:51.934Z,26.40
2022-08-23T18:04:53.871Z,26.20
2022-08-23T18:08:55.856Z,25.90
2022-08-23T18:12:58.083Z,25.80
2022-08-23T18:16:59.770Z,25.80
2022-08-23T18:21:05.894Z,25.90
2022-08-23T18:25:08.113Z,25.80
2022-08-23T18:29:11.582Z,25.80
2022-08-23T18:33:14.057Z,25.70
2022-08-23T18:37:21.575Z,25.70
2022-08-23T18:41:23.777Z,25.60
2022-08-23T18:45:25.478Z,25.50
2022-08-23T18:49:27.222Z,25.40
2022-08-23T18:53:28.975Z,25.40
2022-08-23T18:57:30.646Z,25.40
2022-08-23T19:01:34.479Z,25.30
2022-08-23T19:05:41.726Z,25.20
2022-08-23T19:09:44.442Z,24.70
2022-08-23T19:13:46.391Z,24.20
2022-08-23T19:17:48.123Z,24.20
2022-08-23T19:21:50.245Z,23.80
2022-08-23T19:25:52.037Z,23.90
2022-08-23T19:29:53.813Z,24.10
2022-08-23T19:33:56.089Z,24.00
2022-08-23T19:37:58.025Z,24.00
2022-08-23T19:41:59.907Z,23.90
2022-08-23T19:46:06.001Z,23.90
2022-08-23T19:50:09.530Z,23.90
2022-08-23T19:54:12.609Z,23.80
2022-08-23T19:58:15.065Z,23.90
2022-08-23T20:02:19.862Z,24.00
2022-08-23T20:06:23.500Z,23.80
2022-08-23T20:10:25.377Z,23.90
2022-08-23T20:14:27.914Z,23.70
2022-08-23T20:18:29.566Z,23.40
2022-08-23T20:22:50.219Z,23.10
2022-08-23T20:26:52.263Z,23.00
2022-08-23T20:30:53.927Z,22.90
2022-08-23T20:34:55.758Z,23.00
2022-08-23T20:38:59.772Z,23.20
2022-08-23T20:43:01.744Z,23.00
2022-08-23T20:47:03.827Z,22.80
2022-08-23T20:51:06.599Z,22.50
2022-08-23T20:55:08.439Z,22.50
2022-08-23T20:59:15.932Z,22.40
2022-08-23T21:03:18.039Z,22.20
2022-08-23T21:07:19.649Z,22.00
2022-08-23T21:11:22.631Z,22.00
2022-08-23T21:15:24.222Z,21.90
2022-08-23T21:19:25.827Z,21.80
2022-08-23T21:23:27.533Z,21.90
2022-08-23T21:27:29.230Z,21.90
2022-08-23T21:31:31.548Z,21.80
2022-08-23T21:35:33.573Z,21.90
2022-08-23T21:39:35.277Z,21.70
2022-08-23T21:43:37.354Z,21.70
2022-08-23T21:47:38.928Z,21.60
2022-08-23T21:51:41.490Z,21.80
2022-08-23T21:55:43.260Z,21.80
2022-08-23T21:59:46.929Z,21.50
2022-08-23T22:03:48.567Z,21.30
2022-08-23T22:07:51.007Z,21.40
2022-08-23T22:11:54.798Z,21.30
2022-08-23T22:15:56.556Z,21.30
2022-08-23T22:19:58.135Z,21.50
2022-08-23T22:24:00.017Z,21.40
2022-08-23T22:28:03.062Z,21.20
2022-08-23T22:32:04.675Z,21.00
2022-08-23T22:36:08.934Z,21.20
2022-08-23T22:40:11.594Z,21.20
2022-08-23T22:44:14.860Z,21.20
2022-08-23T22:48:16.480Z,21.10
2022-08-23T22:52:18.413Z,21.00
2022-08-23T22:56:23.619Z,21.00
2022-08-23T23:00:25.337Z,20.90
2022-08-23T23:04:27.578Z,20.90
2022-08-23T23:08:29.273Z,20.80
2022-08-23T23:12:31.364Z,20.60
2022-08-23T23:16:33.649Z,20.70
2022-08-23T23:20:39.438Z,20.70
2022-08-23T23:24:41.072Z,20.30
2022-08-23T23:28:42.678Z,20.20
2022-08-23T23:32:44.460Z,20.30
2022-08-23T23:36:46.080Z,20.30
2022-08-23T23:40:47.701Z,20.10
2022-08-23T23:44:49.293Z,19.90
2022-08-23T23:48:51.342Z,19.90
2022-08-23T23:52:53.012Z,20.00
2022-08-23T23:56:55.148Z,19.70
